Decoded Metar for KFEW ( in ) (IATA:) | Meteo·Mobile Aviation Weather
aviador You're here:

KFEW Decoded Metar

in
Report Time2018-11-15 11:58:00
UTC Time2018-11-15 12:12:21
Flight Rules vfr VFR
Wind310° at 13 Gusting to 21 kt
W.Rank310° ranks 3
Current wind is above 310° avg. (10.4)
Visibility9999 m
Phenomena:N/A
Clouds:N/A
Expected CloudBase > 5,600 ft AGL from Temp-Dew spread
CeilingNone
Temp05°C
Dew Point-9°C (36% RH)
AAT-2.6°C
QNH1021 hPa
Raw Report
METAR KFEW 151158Z AUTO 31013G21KT 10SM CLR 05/M09 A3014 RMK AO2 PK
WND 28035/09 SLP186 T00511093 10069 20043 55002 $=

Extra information for KFEW:More info

Social comments